createdAt,value
2023-03-27T00:00:29.783Z,9.77
2023-03-27T00:01:32.471Z,10.02
2023-03-27T00:02:35.014Z,8.90
2023-03-27T00:03:38.688Z,8.68
2023-03-27T00:04:42.532Z,7.78
2023-03-27T00:05:45.958Z,8.60
2023-03-27T00:06:49.127Z,8.45
2023-03-27T00:07:52.582Z,8.20
2023-03-27T00:08:55.144Z,8.07
2023-03-27T00:09:57.732Z,8.20
2023-03-27T00:11:01.042Z,7.97
2023-03-27T00:12:04.000Z,8.15
2023-03-27T00:13:07.097Z,7.45
2023-03-27T00:14:10.086Z,8.07
2023-03-27T00:15:19.879Z,8.52
2023-03-27T00:16:24.137Z,9.00
2023-03-27T00:17:27.559Z,8.35
2023-03-27T00:18:30.178Z,8.75
2023-03-27T00:19:33.957Z,9.57
2023-03-27T00:20:37.520Z,8.07
2023-03-27T00:21:40.558Z,8.82
2023-03-27T00:22:43.691Z,8.55
2023-03-27T00:23:47.035Z,7.10
2023-03-27T00:24:50.949Z,8.50
2023-03-27T00:25:54.942Z,7.88
2023-03-27T00:26:58.256Z,8.80
2023-03-27T00:28:02.816Z,8.63
2023-03-27T00:29:05.479Z,8.27
2023-03-27T00:30:08.830Z,8.13
2023-03-27T00:31:13.283Z,8.15
2023-03-27T00:32:16.123Z,8.52
2023-03-27T00:33:18.600Z,8.10
2023-03-27T00:34:21.268Z,8.45
2023-03-27T00:35:26.184Z,8.15
2023-03-27T00:36:28.752Z,8.63
2023-03-27T00:37:32.388Z,8.60
2023-03-27T00:38:35.048Z,7.53
2023-03-27T00:39:37.617Z,8.60
2023-03-27T00:40:40.185Z,8.20
2023-03-27T00:41:44.559Z,8.90
2023-03-27T00:42:49.102Z,8.20
2023-03-27T00:43:54.298Z,8.45
2023-03-27T00:44:56.779Z,8.52
2023-03-27T00:46:14.940Z,8.63
2023-03-27T00:47:31.016Z,8.43
2023-03-27T00:48:35.580Z,8.40
2023-03-27T00:49:39.099Z,8.50
2023-03-27T00:50:43.477Z,9.05
2023-03-27T00:51:49.556Z,7.50
2023-03-27T00:52:58.666Z,7.65
2023-03-27T00:54:01.323Z,9.00
2023-03-27T00:55:07.344Z,8.13
2023-03-27T00:56:10.529Z,8.02
2023-03-27T00:57:16.420Z,7.80
2023-03-27T00:58:29.056Z,7.80
2023-03-27T00:59:35.868Z,9.07
2023-03-27T01:00:38.498Z,9.38
2023-03-27T01:01:41.623Z,8.05
2023-03-27T01:02:47.061Z,9.45
2023-03-27T01:03:51.506Z,8.80
2023-03-27T01:04:54.838Z,9.27
2023-03-27T01:05:58.959Z,9.10
2023-03-27T01:07:03.415Z,9.02
2023-03-27T01:08:06.632Z,9.55
2023-03-27T01:09:09.595Z,9.50
2023-03-27T01:10:12.646Z,9.48
2023-03-27T01:11:20.785Z,8.55
2023-03-27T01:12:36.831Z,8.90
2023-03-27T01:13:43.006Z,8.25
2023-03-27T01:14:56.160Z,9.57
2023-03-27T01:16:30.468Z,8.85
2023-03-27T01:17:55.930Z,8.23
2023-03-27T01:19:10.418Z,8.98
2023-03-27T01:20:38.284Z,8.20
2023-03-27T01:22:13.874Z,8.55
2023-03-27T01:23:59.763Z,9.15
2023-03-27T01:25:16.307Z,8.27
2023-03-27T01:27:03.142Z,8.95
2023-03-27T01:28:27.272Z,7.90
2023-03-27T01:29:57.699Z,8.57
2023-03-27T01:31:22.214Z,8.68
2023-03-27T01:32:43.642Z,8.80
2023-03-27T01:34:08.877Z,8.32
2023-03-27T01:35:24.161Z,7.80
2023-03-27T01:36:39.881Z,7.93
2023-03-27T01:38:11.675Z,7.90
2023-03-27T01:39:30.154Z,7.97
2023-03-27T01:40:43.615Z,8.20
2023-03-27T01:41:52.338Z,7.80
2023-03-27T01:43:13.397Z,8.50
2023-03-27T01:44:25.976Z,7.68
2023-03-27T01:45:53.413Z,8.10
2023-03-27T01:47:04.317Z,7.07
2023-03-27T01:48:12.268Z,7.70
2023-03-27T01:49:20.080Z,7.78
2023-03-27T01:50:37.545Z,7.40
2023-03-27T01:51:43.770Z,7.68
2023-03-27T01:52:54.694Z,7.57
2023-03-27T01:54:05.098Z,7.30
2023-03-27T01:55:11.745Z,8.05
2023-03-27T01:56:27.568Z,7.65
2023-03-27T01:57:38.692Z,6.70
2023-03-27T01:58:55.570Z,7.35
2023-03-27T02:00:17.292Z,8.02
2023-03-27T02:01:25.634Z,7.38
2023-03-27T02:02:31.100Z,6.88
2023-03-27T02:03:41.714Z,8.45
2023-03-27T02:04:49.116Z,7.47
2023-03-27T02:06:00.221Z,7.70
2023-03-27T02:07:06.015Z,7.43
2023-03-27T02:08:39.924Z,8.50
2023-03-27T02:09:56.914Z,8.10
2023-03-27T02:10:59.905Z,8.15
2023-03-27T02:12:21.724Z,8.30
2023-03-27T02:13:32.122Z,7.15
2023-03-27T02:14:40.368Z,7.07
2023-03-27T02:15:43.912Z,8.00
2023-03-27T02:16:50.213Z,7.93
2023-03-27T02:18:05.470Z,6.60
2023-03-27T02:19:14.839Z,8.02
2023-03-27T02:20:17.947Z,7.32
2023-03-27T02:21:20.456Z,7.82
2023-03-27T02:22:38.020Z,7.28
2023-03-27T02:23:41.322Z,7.88
2023-03-27T02:24:43.853Z,8.50
2023-03-27T02:25:46.966Z,7.72
2023-03-27T02:26:57.401Z,7.97
2023-03-27T02:28:30.770Z,7.85
2023-03-27T02:29:56.829Z,8.90
2023-03-27T02:31:36.620Z,7.78
2023-03-27T02:32:58.295Z,7.70
2023-03-27T02:34:23.378Z,7.82
2023-03-27T02:35:34.456Z,7.32
2023-03-27T02:37:02.309Z,7.82
2023-03-27T02:38:39.883Z,7.53
2023-03-27T02:39:58.626Z,9.15
2023-03-27T02:41:07.350Z,7.93
2023-03-27T02:42:47.888Z,7.45
2023-03-27T02:44:12.596Z,7.47
2023-03-27T02:45:41.185Z,8.27
2023-03-27T02:47:13.678Z,7.53
2023-03-27T02:48:22.945Z,8.05
2023-03-27T02:49:31.793Z,8.10
2023-03-27T02:50:48.827Z,8.07
2023-03-27T02:51:55.779Z,7.95
2023-03-27T02:53:01.778Z,8.23
2023-03-27T02:54:13.609Z,7.30
2023-03-27T02:55:22.284Z,7.43
2023-03-27T02:56:26.243Z,7.55
2023-03-27T02:57:31.754Z,7.47
2023-03-27T02:59:07.768Z,7.60
2023-03-27T03:00:25.505Z,8.35
2023-03-27T03:02:01.451Z,7.78
2023-03-27T03:03:18.272Z,7.72
2023-03-27T03:04:31.449Z,7.88
2023-03-27T03:05:56.208Z,7.63
2023-03-27T03:06:59.168Z,6.88
2023-03-27T03:08:01.769Z,7.75
2023-03-27T03:09:06.063Z,7.88
2023-03-27T03:10:11.834Z,8.45
2023-03-27T03:11:15.105Z,8.00
2023-03-27T03:12:17.843Z,7.70
2023-03-27T03:13:21.524Z,7.75
2023-03-27T03:14:32.346Z,7.90
2023-03-27T03:15:35.219Z,7.72
2023-03-27T03:16:38.492Z,8.18
2023-03-27T03:17:41.179Z,7.25
2023-03-27T03:18:43.705Z,7.95
2023-03-27T03:19:46.281Z,8.13
2023-03-27T03:20:49.126Z,7.13
2023-03-27T03:21:51.704Z,8.57
2023-03-27T03:22:54.208Z,7.93
2023-03-27T03:23:58.543Z,7.60
2023-03-27T03:25:02.968Z,8.48
2023-03-27T03:26:06.587Z,8.48
2023-03-27T03:27:22.509Z,8.60
2023-03-27T03:28:35.116Z,8.38
2023-03-27T03:29:38.102Z,8.60
2023-03-27T03:30:53.828Z,8.13
2023-03-27T03:31:57.981Z,8.77
2023-03-27T03:33:00.764Z,8.15
2023-03-27T03:34:03.871Z,8.30
2023-03-27T03:35:08.624Z,8.07
2023-03-27T03:36:14.923Z,8.05
2023-03-27T03:37:18.703Z,9.15
2023-03-27T03:38:25.135Z,8.63
2023-03-27T03:39:28.158Z,7.75
2023-03-27T03:40:31.512Z,8.50
2023-03-27T03:41:34.228Z,7.88
2023-03-27T03:42:44.194Z,7.75
2023-03-27T03:43:46.640Z,6.97
2023-03-27T03:44:49.157Z,8.23
2023-03-27T03:45:55.032Z,8.20
2023-03-27T03:46:57.572Z,8.63
2023-03-27T03:48:01.088Z,8.85
2023-03-27T03:49:05.030Z,10.40
2023-03-27T03:50:08.154Z,10.27
2023-03-27T03:51:10.634Z,9.45
2023-03-27T03:52:13.221Z,9.77
2023-03-27T03:53:17.616Z,10.77
2023-03-27T03:54:20.040Z,11.13
2023-03-27T03:55:22.544Z,13.35
2023-03-27T03:56:26.170Z,13.10
2023-03-27T03:57:29.145Z,13.88
2023-03-27T03:58:40.140Z,14.02
2023-03-27T03:59:42.746Z,14.57
2023-03-27T04:01:11.241Z,13.90
2023-03-27T04:02:28.762Z,13.75
2023-03-27T04:03:40.781Z,13.10
2023-03-27T04:04:46.575Z,13.13
2023-03-27T04:05:50.988Z,13.80
2023-03-27T04:06:58.194Z,11.73
2023-03-27T04:08:07.359Z,11.75
2023-03-27T04:09:43.749Z,10.23
2023-03-27T04:10:52.556Z,9.77
2023-03-27T04:12:15.008Z,9.35
2023-03-27T04:13:25.044Z,7.78
2023-03-27T04:14:33.532Z,12.13
2023-03-27T04:15:40.808Z,11.77
2023-03-27T04:16:51.372Z,10.18
2023-03-27T04:17:58.877Z,10.95
2023-03-27T04:19:03.089Z,10.88
2023-03-27T04:20:07.954Z,12.13
2023-03-27T04:21:17.838Z,11.00
2023-03-27T04:22:22.884Z,9.93
2023-03-27T04:23:31.862Z,10.10
2023-03-27T04:24:35.626Z,10.85
2023-03-27T04:25:38.395Z,11.07
2023-03-27T04:26:43.466Z,11.23
2023-03-27T04:28:10.500Z,11.07
2023-03-27T04:29:22.472Z,11.20
2023-03-27T04:30:45.493Z,10.65
2023-03-27T04:32:06.346Z,12.00
2023-03-27T04:33:18.487Z,12.30
2023-03-27T04:34:40.629Z,11.70
2023-03-27T04:36:17.465Z,11.82
2023-03-27T04:37:40.851Z,11.48
2023-03-27T04:39:03.557Z,11.38
2023-03-27T04:40:10.327Z,12.13
2023-03-27T04:41:12.859Z,10.88
2023-03-27T04:42:15.663Z,10.30
2023-03-27T04:43:18.179Z,10.23
2023-03-27T04:44:21.331Z,9.98
2023-03-27T04:45:25.743Z,10.40
2023-03-27T04:46:29.059Z,9.60
2023-03-27T04:47:38.376Z,9.32
2023-03-27T04:48:42.746Z,9.75
2023-03-27T04:49:55.699Z,9.80
2023-03-27T04:51:02.245Z,8.93
2023-03-27T04:52:08.824Z,9.70
2023-03-27T04:53:11.335Z,9.60
2023-03-27T04:54:23.740Z,8.85
2023-03-27T04:55:26.958Z,9.30
2023-03-27T04:56:30.803Z,8.35
2023-03-27T04:57:34.288Z,10.48
2023-03-27T04:58:37.758Z,8.85
2023-03-27T04:59:46.151Z,8.88
2023-03-27T05:01:17.738Z,9.00
2023-03-27T05:02:38.828Z,9.95
2023-03-27T05:03:50.780Z,9.57
2023-03-27T05:05:07.314Z,10.15
2023-03-27T05:06:12.245Z,8.57
2023-03-27T05:07:15.671Z,7.45
2023-03-27T05:08:18.799Z,8.15
2023-03-27T05:09:21.890Z,8.63
2023-03-27T05:10:24.940Z,9.07
2023-03-27T05:11:27.816Z,9.52
2023-03-27T05:12:30.820Z,10.20
2023-03-27T05:13:36.950Z,8.38
2023-03-27T05:14:39.652Z,8.77
2023-03-27T05:15:49.157Z,7.68
2023-03-27T05:16:54.457Z,8.25
2023-03-27T05:17:58.375Z,7.90
2023-03-27T05:19:03.496Z,8.43
2023-03-27T05:20:17.055Z,8.52
2023-03-27T05:21:20.686Z,8.88
2023-03-27T05:22:23.495Z,8.30
2023-03-27T05:23:32.948Z,9.48
2023-03-27T05:24:36.861Z,8.73
2023-03-27T05:25:39.704Z,9.05
2023-03-27T05:26:47.430Z,8.55
2023-03-27T05:27:51.577Z,8.88
2023-03-27T05:28:55.771Z,9.80
2023-03-27T05:29:58.684Z,8.00
2023-03-27T05:31:01.730Z,8.60
2023-03-27T05:32:08.819Z,9.13
2023-03-27T05:33:17.615Z,7.93
2023-03-27T05:34:20.882Z,8.68
2023-03-27T05:35:28.482Z,7.43
2023-03-27T05:36:33.200Z,7.95
2023-03-27T05:37:36.420Z,7.82
2023-03-27T05:38:54.103Z,7.95
2023-03-27T05:40:09.215Z,7.00
2023-03-27T05:41:12.023Z,6.45
2023-03-27T05:42:19.007Z,6.57
2023-03-27T05:43:21.997Z,6.15
2023-03-27T05:44:25.658Z,6.38
2023-03-27T05:45:29.408Z,5.15
2023-03-27T05:46:31.928Z,5.53
2023-03-27T05:47:46.501Z,5.88
2023-03-27T05:48:49.165Z,5.13
2023-03-27T05:49:51.760Z,4.97
2023-03-27T05:50:54.472Z,5.75
2023-03-27T05:51:59.128Z,4.75
2023-03-27T05:53:04.405Z,6.18
2023-03-27T05:54:16.356Z,5.25
2023-03-27T05:55:28.333Z,4.75
2023-03-27T05:56:32.225Z,4.40
2023-03-27T05:57:39.846Z,4.53
2023-03-27T05:58:42.444Z,4.20
2023-03-27T05:59:45.032Z,5.00
2023-03-27T06:00:58.727Z,4.43
2023-03-27T06:02:01.372Z,4.35
2023-03-27T06:03:16.862Z,4.40
2023-03-27T06:04:34.326Z,3.95
2023-03-27T06:05:49.942Z,4.15
2023-03-27T06:06:52.456Z,4.30
2023-03-27T06:08:00.016Z,4.68
2023-03-27T06:09:03.789Z,4.38
2023-03-27T06:10:13.344Z,4.63
2023-03-27T06:11:19.280Z,4.20
2023-03-27T06:12:24.099Z,3.95
2023-03-27T06:13:33.698Z,3.28
2023-03-27T06:14:43.326Z,3.50
2023-03-27T06:16:09.168Z,3.88
2023-03-27T06:17:14.349Z,2.95
2023-03-27T06:18:20.617Z,4.03
2023-03-27T06:19:24.597Z,3.80
2023-03-27T06:20:28.909Z,3.65
2023-03-27T06:21:31.545Z,3.22
2023-03-27T06:22:42.330Z,3.38
2023-03-27T06:23:45.002Z,3.42
2023-03-27T06:24:49.422Z,3.05
2023-03-27T06:25:54.799Z,2.95
2023-03-27T06:26:59.783Z,2.90
2023-03-27T06:28:08.112Z,2.55
2023-03-27T06:29:18.880Z,3.35
2023-03-27T06:30:25.446Z,3.25
2023-03-27T06:31:53.745Z,3.58
2023-03-27T06:33:03.016Z,3.20
2023-03-27T06:34:05.733Z,2.58
2023-03-27T06:35:23.794Z,2.38
2023-03-27T06:36:32.490Z,2.60
2023-03-27T06:37:37.049Z,2.72
2023-03-27T06:38:40.625Z,2.78
2023-03-27T06:39:44.220Z,3.17
2023-03-27T06:40:47.215Z,2.50
2023-03-27T06:41:50.625Z,2.63
2023-03-27T06:43:11.051Z,2.90
2023-03-27T06:44:23.638Z,2.67
2023-03-27T06:45:44.376Z,2.42
2023-03-27T06:47:05.332Z,2.30
2023-03-27T06:48:22.424Z,2.33
2023-03-27T06:49:28.205Z,2.85
2023-03-27T06:50:31.761Z,2.55
2023-03-27T06:51:36.216Z,2.80
2023-03-27T06:52:39.116Z,2.30
2023-03-27T06:53:55.057Z,2.53
2023-03-27T06:54:58.952Z,2.50
2023-03-27T06:56:01.778Z,2.50
2023-03-27T06:57:18.494Z,2.20
2023-03-27T06:58:25.578Z,2.60
2023-03-27T06:59:28.429Z,2.33
2023-03-27T07:00:37.475Z,2.15
2023-03-27T07:01:57.297Z,2.45
2023-03-27T07:03:26.165Z,2.60
2023-03-27T07:05:03.876Z,2.33
2023-03-27T07:06:15.122Z,2.50
2023-03-27T07:07:35.602Z,1.83
2023-03-27T07:08:38.588Z,2.53
2023-03-27T07:09:42.221Z,2.38
2023-03-27T07:10:56.415Z,2.35
2023-03-27T07:12:04.216Z,2.72
2023-03-27T07:13:07.633Z,2.30
2023-03-27T07:14:10.789Z,2.35
2023-03-27T07:15:13.907Z,3.05
2023-03-27T07:16:17.153Z,2.78
2023-03-27T07:17:19.954Z,2.78
2023-03-27T07:18:24.789Z,2.40
2023-03-27T07:19:29.644Z,2.00
2023-03-27T07:20:39.630Z,2.05
2023-03-27T07:21:47.167Z,2.55
2023-03-27T07:22:49.766Z,2.10
2023-03-27T07:24:20.620Z,2.00
2023-03-27T07:25:24.455Z,1.77
2023-03-27T07:26:27.297Z,1.85
2023-03-27T07:27:34.288Z,1.80
2023-03-27T07:28:38.769Z,1.70
2023-03-27T07:29:46.002Z,2.60
2023-03-27T07:30:55.619Z,1.75
2023-03-27T07:32:01.515Z,1.75
2023-03-27T07:33:16.157Z,1.88
2023-03-27T07:34:19.081Z,2.25
2023-03-27T07:35:50.895Z,1.27
2023-03-27T07:37:14.580Z,2.25
2023-03-27T07:38:35.905Z,1.85
2023-03-27T07:40:50.472Z,1.48
2023-03-27T07:42:22.250Z,1.40
2023-03-27T07:43:36.583Z,1.83
2023-03-27T07:44:39.434Z,1.95
2023-03-27T07:45:44.060Z,2.25
2023-03-27T07:46:47.020Z,1.33
2023-03-27T07:47:49.786Z,1.25
2023-03-27T07:48:52.731Z,1.15
2023-03-27T07:49:58.516Z,1.30
2023-03-27T07:51:13.359Z,1.60
2023-03-27T07:52:16.972Z,1.30
2023-03-27T07:53:34.798Z,1.58
2023-03-27T07:55:12.403Z,1.40
2023-03-27T07:56:20.461Z,1.45
2023-03-27T07:57:23.594Z,1.52
2023-03-27T07:58:26.550Z,1.50
2023-03-27T07:59:31.259Z,1.45
2023-03-27T08:00:42.889Z,1.90
2023-03-27T08:01:51.395Z,1.50
2023-03-27T08:03:06.074Z,1.48
2023-03-27T08:04:09.225Z,2.08
2023-03-27T08:05:14.597Z,1.60
2023-03-27T08:06:20.625Z,1.67
2023-03-27T08:07:25.076Z,1.70
2023-03-27T08:08:30.896Z,1.90
2023-03-27T08:09:35.508Z,1.42
2023-03-27T08:10:38.521Z,1.67
2023-03-27T08:11:41.996Z,2.00
2023-03-27T08:12:44.535Z,2.13
2023-03-27T08:13:47.261Z,2.50
2023-03-27T08:14:49.908Z,2.30
2023-03-27T08:16:06.521Z,2.13
2023-03-27T08:17:15.602Z,2.47
2023-03-27T08:18:19.072Z,1.83
2023-03-27T08:19:22.787Z,2.22
2023-03-27T08:20:31.226Z,1.90
2023-03-27T08:21:35.161Z,2.20
2023-03-27T08:22:38.490Z,2.10
2023-03-27T08:24:04.937Z,2.50
2023-03-27T08:25:10.414Z,2.42
2023-03-27T08:26:14.590Z,2.42
2023-03-27T08:27:24.240Z,2.42
2023-03-27T08:28:29.702Z,2.25
2023-03-27T08:29:32.245Z,2.40
2023-03-27T08:30:35.686Z,2.47
2023-03-27T08:31:39.566Z,1.83
2023-03-27T08:32:44.082Z,2.22
2023-03-27T08:33:47.259Z,2.30
2023-03-27T08:34:57.473Z,2.42
2023-03-27T08:36:00.252Z,2.38
2023-03-27T08:37:04.316Z,2.22
2023-03-27T08:38:26.319Z,2.40
2023-03-27T08:39:58.852Z,2.13
2023-03-27T08:41:03.825Z,2.10
2023-03-27T08:42:19.044Z,2.15
2023-03-27T08:43:31.056Z,2.67
2023-03-27T08:44:35.031Z,2.53
2023-03-27T08:45:56.771Z,2.58
2023-03-27T08:47:27.594Z,1.73
2023-03-27T08:48:43.376Z,1.90
2023-03-27T08:49:59.354Z,1.90
2023-03-27T08:51:49.527Z,1.75
2023-03-27T08:52:52.904Z,2.17
2023-03-27T08:54:16.555Z,2.10
2023-03-27T08:55:24.808Z,2.90
2023-03-27T08:56:45.474Z,2.30
2023-03-27T08:57:50.333Z,2.30
2023-03-27T08:58:57.084Z,1.80
2023-03-27T09:00:05.364Z,1.90
2023-03-27T09:01:29.297Z,1.63
2023-03-27T09:02:43.610Z,2.20
2023-03-27T09:04:21.075Z,2.47
2023-03-27T09:06:08.469Z,2.05
2023-03-27T09:07:23.639Z,2.15
2023-03-27T09:09:23.790Z,1.80
2023-03-27T09:10:44.538Z,2.10
2023-03-27T09:12:34.340Z,1.83
2023-03-27T09:13:47.661Z,2.20
2023-03-27T09:15:09.626Z,2.08
2023-03-27T09:16:49.324Z,1.58
2023-03-27T09:18:12.091Z,3.50
2023-03-27T09:19:31.055Z,2.60
2023-03-27T09:20:38.640Z,2.38
2023-03-27T09:21:51.264Z,2.00
2023-03-27T09:23:23.196Z,2.20
2023-03-27T09:24:49.638Z,2.03
2023-03-27T09:26:34.766Z,2.25
2023-03-27T09:27:40.061Z,2.15
2023-03-27T09:29:10.423Z,1.58
2023-03-27T09:30:28.482Z,1.90
2023-03-27T09:32:12.181Z,1.75
2023-03-27T09:33:15.159Z,1.90
2023-03-27T09:34:38.057Z,1.63
2023-03-27T09:35:41.113Z,2.17
2023-03-27T09:36:44.610Z,2.42
2023-03-27T09:37:49.783Z,2.40
2023-03-27T09:38:54.603Z,2.42
2023-03-27T09:40:01.763Z,2.80
2023-03-27T09:41:12.916Z,2.60
2023-03-27T09:42:24.459Z,2.00
2023-03-27T09:43:39.461Z,2.47
2023-03-27T09:44:42.620Z,1.70
2023-03-27T09:45:47.380Z,2.20
2023-03-27T09:46:54.694Z,2.63
2023-03-27T09:48:05.645Z,2.80
2023-03-27T09:49:18.415Z,2.25
2023-03-27T09:50:42.891Z,2.47
2023-03-27T09:51:52.667Z,2.80
2023-03-27T09:53:16.054Z,2.92
2023-03-27T09:54:29.074Z,2.42
2023-03-27T09:55:35.333Z,1.73
2023-03-27T09:57:04.429Z,1.98
2023-03-27T09:58:27.933Z,1.85
2023-03-27T09:59:51.507Z,2.00
2023-03-27T10:01:27.903Z,1.30
2023-03-27T10:02:37.332Z,1.52
2023-03-27T10:03:54.492Z,1.65
2023-03-27T10:05:22.124Z,2.35
2023-03-27T10:07:07.917Z,2.65
2023-03-27T10:08:57.410Z,3.30
2023-03-27T10:10:21.944Z,2.60
2023-03-27T10:12:06.508Z,3.83
2023-03-27T10:13:11.854Z,2.15
2023-03-27T10:14:21.693Z,2.03
2023-03-27T10:15:32.559Z,2.42
2023-03-27T10:16:40.234Z,1.55
2023-03-27T10:17:48.819Z,1.80
2023-03-27T10:18:55.670Z,1.83
2023-03-27T10:20:15.681Z,1.65
2023-03-27T10:21:35.789Z,2.00
2023-03-27T10:23:49.693Z,2.30
2023-03-27T10:25:22.203Z,1.90
2023-03-27T10:26:44.297Z,1.70
2023-03-27T10:27:47.570Z,1.70
2023-03-27T10:29:37.683Z,1.60
2023-03-27T10:30:45.821Z,1.60
2023-03-27T10:32:08.304Z,1.52
2023-03-27T10:33:11.134Z,1.80
2023-03-27T10:34:34.863Z,1.70
2023-03-27T10:35:43.818Z,1.60
2023-03-27T10:37:37.327Z,1.50
2023-03-27T10:38:58.463Z,1.13
2023-03-27T10:40:31.026Z,1.40
2023-03-27T10:41:39.752Z,1.55
2023-03-27T10:42:44.017Z,1.30
2023-03-27T10:43:47.620Z,1.50
2023-03-27T10:44:51.068Z,1.45
2023-03-27T10:46:09.949Z,1.48
2023-03-27T10:47:24.857Z,1.63
2023-03-27T10:48:45.563Z,1.88
2023-03-27T10:50:12.052Z,1.77
2023-03-27T10:51:45.567Z,1.40
2023-03-27T10:53:06.151Z,1.58
2023-03-27T10:54:34.845Z,1.85
2023-03-27T10:55:51.639Z,2.03
2023-03-27T10:57:00.610Z,1.80
2023-03-27T10:58:08.590Z,1.80
2023-03-27T10:59:21.555Z,2.05
2023-03-27T11:00:38.120Z,1.73
2023-03-27T11:01:45.310Z,2.00
2023-03-27T11:03:00.268Z,1.85
2023-03-27T11:04:22.296Z,1.77
2023-03-27T11:05:36.588Z,1.65
2023-03-27T11:06:48.339Z,1.70
2023-03-27T11:08:03.087Z,1.63
2023-03-27T11:09:16.285Z,2.10
2023-03-27T11:10:47.313Z,2.20
2023-03-27T11:12:17.538Z,2.40
2023-03-27T11:13:33.758Z,2.05
2023-03-27T11:14:59.767Z,1.85
2023-03-27T11:16:35.520Z,1.67
2023-03-27T11:18:05.103Z,1.75
2023-03-27T11:19:38.151Z,1.50
2023-03-27T11:21:02.617Z,1.92
2023-03-27T11:22:18.781Z,2.67
2023-03-27T11:23:24.743Z,1.60
2023-03-27T11:25:12.201Z,1.50
2023-03-27T11:26:18.290Z,1.77
2023-03-27T11:27:37.974Z,2.25
2023-03-27T11:28:54.681Z,2.20
2023-03-27T11:30:23.192Z,1.88
2023-03-27T11:31:46.205Z,1.55
2023-03-27T11:33:28.182Z,2.15
2023-03-27T11:34:53.031Z,2.20
2023-03-27T11:36:34.476Z,1.92
2023-03-27T11:37:59.742Z,1.58
2023-03-27T11:39:16.038Z,2.00
2023-03-27T11:40:43.725Z,1.75
2023-03-27T11:41:52.264Z,1.30
2023-03-27T11:42:55.547Z,1.58
2023-03-27T11:43:58.293Z,1.60
2023-03-27T11:45:57.201Z,1.55
2023-03-27T11:47:21.643Z,1.73
2023-03-27T11:48:57.973Z,1.35
2023-03-27T11:50:23.075Z,1.33
2023-03-27T11:51:44.761Z,1.70
2023-03-27T11:53:04.516Z,1.13
2023-03-27T11:54:40.079Z,1.40
2023-03-27T11:56:00.799Z,1.40
2023-03-27T11:57:09.269Z,1.65
2023-03-27T11:58:41.730Z,1.55
2023-03-27T12:00:06.682Z,1.50
2023-03-27T12:01:39.762Z,1.70
2023-03-27T12:02:49.464Z,1.50
2023-03-27T12:04:12.659Z,1.90
2023-03-27T12:05:52.633Z,2.10
2023-03-27T12:07:26.267Z,1.55
2023-03-27T12:08:56.258Z,1.83
2023-03-27T12:10:12.017Z,1.52
2023-03-27T12:12:15.439Z,1.23
2023-03-27T12:13:38.479Z,1.42
2023-03-27T12:15:04.765Z,1.70
2023-03-27T12:16:08.455Z,1.15
2023-03-27T12:17:42.741Z,1.40
2023-03-27T12:19:28.500Z,1.50
2023-03-27T12:21:31.048Z,1.15
2023-03-27T12:23:08.604Z,1.23
2023-03-27T12:24:57.172Z,1.45
2023-03-27T12:26:31.796Z,1.75
2023-03-27T12:28:08.616Z,1.45
2023-03-27T12:29:48.068Z,1.38
2023-03-27T12:31:04.345Z,1.73
2023-03-27T12:32:15.969Z,1.90
2023-03-27T12:33:24.446Z,2.40
2023-03-27T12:34:56.814Z,2.25
2023-03-27T12:36:06.787Z,1.88
2023-03-27T12:37:12.209Z,1.58
2023-03-27T12:38:35.660Z,1.20
2023-03-27T12:40:33.772Z,1.23
2023-03-27T12:41:44.658Z,1.20
2023-03-27T12:43:13.530Z,1.48
2023-03-27T12:44:29.043Z,1.55
2023-03-27T12:46:40.892Z,1.60
2023-03-27T12:48:05.388Z,1.40
2023-03-27T12:49:13.222Z,1.20
2023-03-27T12:50:28.316Z,1.17
2023-03-27T12:51:43.262Z,1.23
2023-03-27T12:52:49.028Z,1.45
2023-03-27T12:53:59.406Z,1.70
2023-03-27T12:55:06.647Z,1.60
2023-03-27T12:56:44.261Z,1.60
2023-03-27T12:57:47.510Z,1.77
2023-03-27T12:58:55.879Z,1.50
2023-03-27T13:00:25.701Z,1.65
2023-03-27T13:01:49.134Z,1.52
2023-03-27T13:03:25.007Z,1.38
2023-03-27T13:04:46.164Z,1.70
2023-03-27T13:05:57.863Z,2.50
2023-03-27T13:07:53.405Z,2.05
2023-03-27T13:09:16.748Z,3.78
2023-03-27T13:10:59.693Z,4.32
2023-03-27T13:12:25.641Z,3.88
2023-03-27T13:13:49.684Z,2.78
2023-03-27T13:15:19.263Z,2.30
2023-03-27T13:16:52.172Z,2.10
2023-03-27T13:18:28.229Z,1.55
2023-03-27T13:19:53.493Z,2.03
2023-03-27T13:21:16.533Z,2.25
2023-03-27T13:22:37.060Z,1.58
2023-03-27T13:24:14.328Z,1.77
2023-03-27T13:25:28.372Z,1.90
2023-03-27T13:27:16.466Z,1.50
2023-03-27T13:28:32.484Z,1.63
2023-03-27T13:29:43.073Z,1.55
2023-03-27T13:30:53.506Z,1.63
2023-03-27T13:32:31.270Z,2.20
2023-03-27T13:36:25.120Z,2.83
2023-03-27T13:37:36.482Z,2.33
2023-03-27T13:38:53.412Z,2.50
2023-03-27T13:40:01.567Z,2.00
2023-03-27T13:41:44.180Z,2.83
2023-03-27T13:43:04.336Z,2.10
2023-03-27T13:44:15.445Z,2.05
2023-03-27T13:45:26.344Z,2.00
2023-03-27T13:46:57.656Z,1.50
2023-03-27T13:48:18.929Z,1.90
2023-03-27T13:50:01.919Z,1.95
2023-03-27T13:51:20.010Z,1.58
2023-03-27T13:52:45.978Z,1.30
2023-03-27T13:54:23.019Z,1.45
2023-03-27T13:56:10.020Z,1.38
2023-03-27T13:58:08.077Z,1.65
2023-03-27T13:59:41.551Z,1.90
2023-03-27T14:01:17.100Z,2.00
2023-03-27T14:02:57.851Z,2.08
2023-03-27T14:04:27.563Z,1.80
2023-03-27T14:06:04.056Z,1.50
2023-03-27T14:07:31.125Z,1.50
2023-03-27T14:08:56.243Z,1.45
2023-03-27T14:10:31.997Z,1.67
2023-03-27T14:11:51.164Z,1.58
2023-03-27T14:13:44.284Z,1.27
2023-03-27T14:15:20.824Z,1.52
2023-03-27T14:16:52.087Z,1.42
2023-03-27T14:18:15.819Z,1.70
2023-03-27T14:19:33.015Z,1.35
2023-03-27T14:20:45.399Z,1.77
2023-03-27T14:22:32.766Z,1.77
2023-03-27T14:23:47.356Z,1.63
2023-03-27T14:25:04.695Z,1.25
2023-03-27T14:26:22.678Z,1.48
2023-03-27T14:27:26.911Z,1.70
2023-03-27T14:28:34.810Z,1.52
2023-03-27T14:29:40.262Z,1.65
2023-03-27T14:30:49.417Z,1.90
2023-03-27T14:32:27.433Z,1.38
2023-03-27T14:33:30.959Z,2.25
2023-03-27T14:34:47.188Z,1.77
2023-03-27T14:36:26.436Z,1.77
2023-03-27T14:37:39.058Z,1.88
2023-03-27T14:39:17.666Z,1.95
2023-03-27T14:40:31.239Z,2.00
2023-03-27T14:41:48.369Z,1.52
2023-03-27T14:42:52.623Z,2.08
2023-03-27T14:43:56.958Z,2.30
2023-03-27T14:45:37.759Z,1.90
2023-03-27T14:46:48.130Z,1.67
2023-03-27T14:48:12.720Z,1.50
2023-03-27T14:49:25.043Z,1.40
2023-03-27T14:50:34.526Z,1.75
2023-03-27T14:51:42.148Z,1.30
2023-03-27T14:52:53.210Z,1.75
2023-03-27T14:54:00.943Z,1.70
2023-03-27T14:55:15.667Z,1.63
2023-03-27T14:56:25.452Z,1.60
2023-03-27T14:57:28.355Z,1.90
2023-03-27T14:58:42.297Z,1.60
2023-03-27T14:59:46.524Z,1.77
2023-03-27T15:00:58.071Z,2.08
2023-03-27T15:02:29.094Z,1.75
2023-03-27T15:03:38.032Z,1.52
2023-03-27T15:04:41.761Z,1.10
2023-03-27T15:06:01.969Z,1.17
2023-03-27T15:07:22.502Z,1.33
2023-03-27T15:08:37.190Z,1.30
2023-03-27T15:10:06.064Z,1.42
2023-03-27T15:11:37.330Z,1.02
2023-03-27T15:12:47.294Z,1.40
2023-03-27T15:13:50.630Z,1.08
2023-03-27T15:15:01.058Z,1.10
2023-03-27T15:16:06.659Z,1.13
2023-03-27T15:17:15.031Z,1.83
2023-03-27T15:18:31.408Z,1.20
2023-03-27T15:19:45.224Z,1.60
2023-03-27T15:20:50.674Z,1.42
2023-03-27T15:22:04.954Z,1.27
2023-03-27T15:23:28.516Z,1.60
2023-03-27T15:24:51.018Z,1.30
2023-03-27T15:26:18.066Z,1.35
2023-03-27T15:27:26.690Z,0.93
2023-03-27T15:28:33.865Z,1.13
2023-03-27T15:29:40.899Z,1.27
2023-03-27T15:30:46.742Z,1.13
2023-03-27T15:31:49.813Z,1.02
2023-03-27T15:32:55.273Z,1.10
2023-03-27T15:34:08.579Z,1.05
2023-03-27T15:35:29.848Z,1.42
2023-03-27T15:36:34.294Z,2.78
2023-03-27T15:37:36.889Z,2.75
2023-03-27T15:38:39.488Z,2.15
2023-03-27T15:40:26.715Z,2.08
2023-03-27T15:41:36.648Z,3.25
2023-03-27T15:43:01.086Z,3.28
2023-03-27T15:44:06.121Z,2.47
2023-03-27T15:45:10.727Z,3.45
2023-03-27T15:46:20.456Z,2.70
2023-03-27T15:47:25.994Z,1.90
2023-03-27T15:48:37.170Z,2.22
2023-03-27T15:49:41.976Z,1.92
2023-03-27T15:50:58.226Z,2.30
2023-03-27T15:52:21.581Z,2.05
2023-03-27T15:53:31.446Z,1.42
2023-03-27T15:54:35.700Z,2.08
2023-03-27T15:55:42.521Z,1.40
2023-03-27T15:56:45.117Z,1.42
2023-03-27T15:57:47.840Z,1.70
2023-03-27T15:58:54.420Z,1.60
2023-03-27T16:00:04.248Z,1.63
2023-03-27T16:01:24.110Z,1.70
2023-03-27T16:02:28.385Z,1.95
2023-03-27T16:03:34.419Z,1.98
2023-03-27T16:04:53.408Z,2.10
2023-03-27T16:05:57.411Z,2.20
2023-03-27T16:07:27.493Z,1.92
2023-03-27T16:08:35.064Z,2.33
2023-03-27T16:10:02.811Z,2.17
2023-03-27T16:11:06.408Z,1.50
2023-03-27T16:12:11.080Z,2.38
2023-03-27T16:13:26.652Z,1.90
2023-03-27T16:14:29.409Z,1.50
2023-03-27T16:15:36.492Z,1.35
2023-03-27T16:16:42.613Z,1.73
2023-03-27T16:17:45.872Z,2.00
2023-03-27T16:18:49.497Z,1.92
2023-03-27T16:19:56.042Z,2.03
2023-03-27T16:21:09.497Z,1.85
2023-03-27T16:22:13.246Z,1.70
2023-03-27T16:23:15.769Z,1.88
2023-03-27T16:24:18.606Z,1.80
2023-03-27T16:25:21.035Z,1.85
2023-03-27T16:26:27.286Z,1.83